Time;durP1;ratioP1;P1;durP2;ratioP2;P2;SDS_P1;SDS_P2;PMS_P1;PMS_P2;Temp;Humidity;BMP_temperature;BMP_pressure;BME280_temperature;BME280_humidity;BME280_pressure;Samples;Min_cycle;Max_cycle;Signal;HPM_P1;HPM_P2
2022/08/04 00:49:22;;;;;;;;;;;;;;;;;;5025619;28;19964;-85
2022/08/04 00:51:47;;;;;;;;;;;;;;;;;;5024190;28;19975;-84
2022/08/04 00:54:12;;;;;;;;;;;;;;;;;;5037822;28;19919;-84
2022/08/04 00:56:37;;;;;;;;;;;;;;;;;;5026097;28;19913;-85
2022/08/04 00:59:02;;;;;;;;;;;;;;;;;;5025055;28;19928;-85
2022/08/04 01:01:28;;;;;;;;;;;;;;;;;;5037581;28;20600;-84
2022/08/04 01:03:53;;;;;;;;;;;;;;;;;;5025105;28;19913;-86
2022/08/04 01:06:18;;;;;;;;;;;;;;;;;;5027807;28;19966;-85
2022/08/04 01:08:43;;;;;;;;;;;;;;;;;;5024176;28;19914;-84
2022/08/04 01:11:08;;;;;;;;;;;;;;;;;;5025267;28;20037;-85
2022/08/04 01:13:34;;;;;;;;;;;;;;;;;;5017706;28;20379;-86
2022/08/04 01:15:59;;;;;;;;;;;;;;;;;;5022119;28;19921;-84
2022/08/04 01:18:24;;;;;;;;;;;;;;;;;;5023906;28;19924;-86
2022/08/04 01:20:49;;;;;;;;;;;;;;;;;;5022386;28;19925;-84
2022/08/04 01:23:14;;;;;;;;;;;;;;;;;;5020694;28;20796;-86
2022/08/04 01:25:40;;;;;;;;;;;;;;;;;;5023150;28;19920;-86
2022/08/04 01:28:05;;;;;;;;;;;;;;;;;;5025282;28;19921;-85
2022/08/04 01:30:30;;;;;;;;;;;;;;;;;;5021242;28;20278;-87
2022/08/04 01:32:55;;;;;;;;;;;;;;;;;;5024409;28;20008;-85
2022/08/04 01:35:21;;;;;;;;;;;;;;;;;;5025500;28;19913;-86
2022/08/04 01:37:46;;;;;;;;;;;;;;;;;;5026604;28;20367;-85
2022/08/04 01:40:11;;;;;;;;;;;;;;;;;;5029038;28;19913;-86
2022/08/04 01:42:36;;;;;;;;;;;;;;;;;;5020141;28;19921;-85
2022/08/04 01:45:01;;;;;;;;;;;;;;;;;;5018432;28;19918;-84
2022/08/04 01:47:26;;;;;;;;;;;;;;;;;;5027434;28;20016;-86
2022/08/04 01:49:52;;;;;;;;;;;;;;;;;;5031083;28;19921;-85
2022/08/04 01:52:17;;;;;;;;;;;;;;;;;;5029308;28;19910;-87
2022/08/04 01:54:42;;;;;;;;;;;;;;;;;;5029551;28;19916;-87
2022/08/04 01:57:07;;;;;;;;;;;;;;;;;;5033220;28;19913;-85
2022/08/04 01:59:32;;;;;;;;;;;;;;;;;;5027432;28;19914;-85
2022/08/04 02:01:57;;;;;;;;;;;;;;;;;;5024370;28;19999;-85
2022/08/04 02:04:23;;;;;;;;;;;;;;;;;;5029796;28;19924;-86
2022/08/04 02:06:48;;;;;;;;;;;;;;;;;;5032782;28;20290;-86
2022/08/04 02:09:13;;;;;;;;;;;;;;;;;;5036895;28;19971;-85
2022/08/04 02:11:38;;;;;;;;;;;;;;;;;;5031420;28;19991;-84
2022/08/04 02:14:03;;;;;;;;;;;;;;;;;;5026018;28;19956;-84
2022/08/04 02:16:29;;;;;;;;;;;;;;;;;;5030589;28;19913;-85
2022/08/04 02:18:54;;;;;;;;;;;;;;;;;;5036221;28;19921;-86
2022/08/04 02:21:19;;;;;;;;;;;;;;;;;;5029438;28;19916;-86
2022/08/04 02:23:45;;;;;;;;;;;;;;;;;;5022291;28;20371;-86
2022/08/04 02:26:10;;;;;;;;;;;;;;;;;;5029574;28;19917;-86
2022/08/04 02:28:35;;;;;;;;;;;;;;;;;;5025212;28;19954;-84
2022/08/04 02:31:00;;;;;;;;;;;;;;;;;;5025068;28;19921;-86
2022/08/04 02:33:26;;;;;;;;;;;;;;;;;;5020024;28;20321;-85
2022/08/04 02:35:51;;;;;;;;;;;;;;;;;;5028424;28;19959;-86
2022/08/04 02:38:16;;;;;;;;;;;;;;;;;;5026387;28;19924;-86
2022/08/04 02:40:41;;;;;;;;;;;;;;;;;;5024053;28;19915;-87
2022/08/04 02:43:07;;;;;;;;;;;;;;;;;;5024929;28;19913;-86
2022/08/04 02:45:32;;;;;;;;;;;;;;;;;;5027870;28;19924;-85
2022/08/04 02:47:57;;;;;;;;;;;;;;;;;;5023276;28;19917;-85
2022/08/04 02:50:22;;;;;;;;;;;;;;;;;;5023918;28;20376;-85
2022/08/04 02:52:47;;;;;;;;;;;;;;;;;;5029248;28;19913;-85
2022/08/04 02:55:13;;;;;;;;;;;;;;;;;;5019432;28;19913;-86
2022/08/04 02:57:38;;;;;;;;;;;;;;;;;;5013628;28;19932;-83
2022/08/04 03:00:04;;;;;;;;;;;;;;;;;;5020740;28;20378;-86
2022/08/04 03:02:29;;;;;;;;;;;;;;;;;;5018918;28;19926;-85
2022/08/04 03:04:54;;;;;;;;;;;;;;;;;;5021374;28;19917;-86
2022/08/04 03:07:19;;;;;;;;;;;;;;;;;;5019618;28;20366;-86
2022/08/04 03:09:45;;;;;;;;;;;;;;;;;;5035876;28;19968;-86
2022/08/04 03:12:10;;;;;;;;;;;;;;;;;;5019236;28;19976;-85
2022/08/04 03:14:35;;;;;;;;;;;;;;;;;;5018490;28;19922;-85
2022/08/04 03:17:00;;;;;;;;;;;;;;;;;;5019391;28;20371;-86
2022/08/04 03:19:25;;;;;;;;;;;;;;;;;;5023050;28;19925;-84
2022/08/04 03:21:51;;;;;;;;;;;;;;;;;;5020877;28;20489;-86
2022/08/04 03:24:16;;;;;;;;;;;;;;;;;;5019383;28;19914;-86
2022/08/04 03:26:41;;;;;;;;;;;;;;;;;;5023863;28;20292;-86
2022/08/04 03:29:06;;;;;;;;;;;;;;;;;;5021450;28;19917;-86
2022/08/04 03:31:32;;;;;;;;;;;;;;;;;;5029022;28;19967;-84
2022/08/04 03:33:57;;;;;;;;;;;;;;;;;;5022481;28;20391;-84
2022/08/04 03:36:22;;;;;;;;;;;;;;;;;;5027005;28;19967;-85
2022/08/04 03:38:47;;;;;;;;;;;;;;;;;;5022488;28;19917;-84
2022/08/04 03:41:12;;;;;;;;;;;;;;;;;;5023683;28;20393;-84
2022/08/04 03:43:37;;;;;;;;;;;;;;;;;;5022759;28;19917;-84
2022/08/04 03:46:03;;;;;;;;;;;;;;;;;;5030697;28;20367;-84
2022/08/04 03:48:28;;;;;;;;;;;;;;;;;;5029932;28;19925;-85
2022/08/04 03:53:37;;;;;;;;;;;;;;;;;;5025768;28;19955;-85
2022/08/04 03:56:02;;;;;;;;;;;;;;;;;;5025089;28;19914;-84
2022/08/04 03:58:27;;;;;;;;;;;;;;;;;;5031015;28;19948;-84
2022/08/04 04:00:52;;;;;;;;;;;;;;;;;;5032482;28;19916;-85
2022/08/04 04:03:17;;;;;;;;;;;;;;;;;;5039130;28;19913;-85
2022/08/04 04:05:43;;;;;;;;;;;;;;;;;;5027156;28;19960;-85
2022/08/04 04:08:08;;;;;;;;;;;;;;;;;;5026615;28;20929;-86
2022/08/04 04:10:33;;;;;;;;;;;;;;;;;;5029154;28;19913;-85
2022/08/04 04:12:58;;;;;;;;;;;;;;;;;;5027133;28;20206;-85
2022/08/04 04:15:24;;;;;;;;;;;;;;;;;;5025218;28;20345;-83
2022/08/04 04:17:49;;;;;;;;;;;;;;;;;;5027397;28;19924;-84
2022/08/04 04:20:14;;;;;;;;;;;;;;;;;;5028417;28;20327;-85
2022/08/04 04:22:39;;;;;;;;;;;;;;;;;;5029375;28;19918;-85
2022/08/04 04:25:04;;;;;;;;;;;;;;;;;;5022505;28;19925;-86
2022/08/04 04:27:30;;;;;;;;;;;;;;;;;;5033306;28;20329;-84
2022/08/04 04:29:55;;;;;;;;;;;;;;;;;;5033219;28;20258;-86
2022/08/04 04:32:20;;;;;;;;;;;;;;;;;;5026527;28;19924;-84
2022/08/04 04:34:45;;;;;;;;;;;;;;;;;;5028552;28;19919;-84
2022/08/04 04:37:10;;;;;;;;;;;;;;;;;;5028183;28;20363;-86
2022/08/04 04:39:35;;;;;;;;;;;;;;;;;;5023975;28;19916;-85
2022/08/04 04:42:01;;;;;;;;;;;;;;;;;;5023683;28;20429;-84
2022/08/04 04:44:26;;;;;;;;;;;;;;;;;;5021315;28;19925;-84
2022/08/04 04:46:51;;;;;;;;;;;;;;;;;;5025685;28;20470;-84
2022/08/04 04:49:16;;;;;;;;;;;;;;;;;;5027014;28;19921;-85
2022/08/04 04:51:42;;;;;;;;;;;;;;;;;;5024554;28;20289;-85
2022/08/04 04:54:07;;;;;;;;;;;;;;;;;;5017812;28;19925;-84
2022/08/04 04:56:32;;;;;;;;;;;;;;;;;;5021680;23;19936;-85
2022/08/04 04:58:57;;;;;;;;;;;;;;;;;;5009039;28;19917;-84
2022/08/04 05:01:23;;;;;;;;;;;;;;;;;;5005855;28;20001;-84
2022/08/04 05:03:48;;;;;;;;;;;;;;;;;;5000172;28;20010;-84
2022/08/04 05:06:14;;;;;;;;;;;;;;;;;;5005957;28;20382;-85
2022/08/04 05:08:39;;;;;;;;;;;;;;;;;;5002150;28;19927;-84
2022/08/04 05:11:04;;;;;;;;;;;;;;;;;;4998439;28;20290;-84
2022/08/04 05:13:29;;;;;;;;;;;;;;;;;;5005317;28;19917;-84
2022/08/04 05:15:54;;;;;;;;;;;;;;;;;;5005771;28;19940;-84
2022/08/04 05:18:19;;;;;;;;;;;;;;;;;;5009127;28;20004;-84
2022/08/04 05:20:44;;;;;;;;;;;;;;;;;;5004241;28;19918;-84
2022/08/04 05:23:10;;;;;;;;;;;;;;;;;;5001445;28;19988;-85
2022/08/04 05:25:35;;;;;;;;;;;;;;;;;;5002812;28;19925;-84
2022/08/04 05:28:00;;;;;;;;;;;;;;;;;;5005860;28;19917;-85
2022/08/04 05:30:25;;;;;;;;;;;;;;;;;;5007766;28;20476;-85
2022/08/04 05:32:50;;;;;;;;;;;;;;;;;;5005902;28;19916;-85
2022/08/04 05:35:16;;;;;;;;;;;;;;;;;;5006410;28;19961;-85
2022/08/04 05:37:41;;;;;;;;;;;;;;;;;;5005118;28;19917;-85
2022/08/04 05:40:06;;;;;;;;;;;;;;;;;;5005049;28;19920;-84
2022/08/04 05:42:33;;;;;;;;;;;;;;;;;;5005065;28;19921;-85
2022/08/04 05:44:58;;;;;;;;;;;;;;;;;;5007550;28;20493;-85
2022/08/04 05:47:23;;;;;;;;;;;;;;;;;;5005610;28;20037;-85
2022/08/04 05:49:48;;;;;;;;;;;;;;;;;;5010806;28;19921;-84
2022/08/04 05:52:13;;;;;;;;;;;;;;;;;;5007264;28;19952;-84
2022/08/04 05:54:38;;;;;;;;;;;;;;;;;;5006780;28;19956;-85
2022/08/04 05:57:04;;;;;;;;;;;;;;;;;;5009830;28;19949;-84
2022/08/04 05:59:29;;;;;;;;;;;;;;;;;;5003792;28;20036;-84
2022/08/04 06:01:54;;;;;;;;;;;;;;;;;;5008856;28;19968;-84
2022/08/04 06:04:19;;;;;;;;;;;;;;;;;;5003789;28;19941;-85
2022/08/04 06:06:45;;;;;;;;;;;;;;;;;;5007056;28;19921;-84
2022/08/04 06:09:10;;;;;;;;;;;;;;;;;;5009202;28;19921;-85
2022/08/04 06:11:35;;;;;;;;;;;;;;;;;;5007001;28;20410;-85
2022/08/04 06:14:01;;;;;;;;;;;;;;;;;;5006297;28;20017;-85
2022/08/04 06:16:26;;;;;;;;;;;;;;;;;;5004607;28;19925;-85
2022/08/04 06:18:52;;;;;;;;;;;;;;;;;;5002292;28;19996;-85
2022/08/04 06:21:17;;;;;;;;;;;;;;;;;;5007937;28;20341;-86
2022/08/04 06:23:42;;;;;;;;;;;;;;;;;;5005050;28;19956;-85
2022/08/04 06:26:07;;;;;;;;;;;;;;;;;;5008959;28;19921;-85
2022/08/04 06:28:33;;;;;;;;;;;;;;;;;;5001360;28;19914;-85
2022/08/04 06:31:02;;;;;;;;;;;;;;;;;;5002981;28;19913;-85
2022/08/04 06:33:32;;;;;;;;;;;;;;;;;;5002449;28;19913;-85
2022/08/04 06:35:57;;;;;;;;;;;;;;;;;;5007159;28;19920;-86
2022/08/04 06:38:22;;;;;;;;;;;;;;;;;;4996718;28;19914;-85
2022/08/04 06:40:47;;;;;;;;;;;;;;;;;;5000512;28;19940;-86
2022/08/04 06:43:13;;;;;;;;;;;;;;;;;;5000951;28;19922;-85
2022/08/04 06:45:38;;;;;;;;;;;;;;;;;;5006943;28;19918;-85
2022/08/04 06:48:03;;;;;;;;;;;;;;;;;;5004110;28;19914;-86
2022/08/04 06:50:29;;;;;;;;;;;;;;;;;;5001410;28;19917;-85
2022/08/04 06:52:54;;;;;;;;;;;;;;;;;;5002636;28;19913;-87
2022/08/04 06:55:19;;;;;;;;;;;;;;;;;;5002616;28;20314;-85
2022/08/04 06:57:45;;;;;;;;;;;;;;;;;;5006730;28;19924;-86
2022/08/04 07:00:11;;;;;;;;;;;;;;;;;;4997711;28;19914;-85
2022/08/04 07:02:36;;;;;;;;;;;;;;;;;;5003359;28;19921;-86
2022/08/04 07:05:01;;;;;;;;;;;;;;;;;;5004010;28;19918;-86
2022/08/04 07:07:26;;;;;;;;;;;;;;;;;;5006504;28;19913;-85
2022/08/04 07:09:51;;;;;;;;;;;;;;;;;;5007992;28;19937;-85
2022/08/04 07:12:20;;;;;;;;;;;;;;;;;;5002865;28;19988;-86
2022/08/04 07:14:45;;;;;;;;;;;;;;;;;;5004060;28;20004;-85
2022/08/04 07:17:10;;;;;;;;;;;;;;;;;;5005896;28;20375;-85
2022/08/04 07:19:35;;;;;;;;;;;;;;;;;;5005915;28;19918;-86
2022/08/04 07:22:01;;;;;;;;;;;;;;;;;;5010033;28;19929;-85
2022/08/04 07:24:26;;;;;;;;;;;;;;;;;;5013905;28;19980;-85
2022/08/04 07:26:51;;;;;;;;;;;;;;;;;;5005796;28;19972;-85
2022/08/04 07:29:16;;;;;;;;;;;;;;;;;;5005367;28;19967;-85
2022/08/04 07:31:44;;;;;;;;;;;;;;;;;;5004624;28;19921;-85
2022/08/04 07:34:09;;;;;;;;;;;;;;;;;;5005682;28;20367;-86
2022/08/04 07:36:34;;;;;;;;;;;;;;;;;;5008276;28;19920;-85
2022/08/04 07:38:59;;;;;;;;;;;;;;;;;;5012779;28;19913;-86
2022/08/04 07:41:24;;;;;;;;;;;;;;;;;;5005602;28;19920;-85
2022/08/04 07:43:50;;;;;;;;;;;;;;;;;;5005022;28;20276;-85
2022/08/04 07:46:15;;;;;;;;;;;;;;;;;;5010129;28;20665;-85
2022/08/04 07:48:40;;;;;;;;;;;;;;;;;;5009496;28;19914;-86
2022/08/04 07:51:05;;;;;;;;;;;;;;;;;;5007712;28;19928;-85
2022/08/04 07:53:32;;;;;;;;;;;;;;;;;;5008605;28;19918;-86
2022/08/04 07:56:03;;;;;;;;;;;;;;;;;;5007550;28;19918;-86
2022/08/04 07:58:28;;;;;;;;;;;;;;;;;;5003484;28;19957;-85
2022/08/04 08:00:53;;;;;;;;;;;;;;;;;;5006284;28;19967;-85
2022/08/04 08:03:29;;;;;;;;;;;;;;;;;;;;;
2022/08/04 08:06:06;;;;;;;;;;;;;;;;;;5003548;28;19924;-87
2022/08/04 08:08:32;;;;;;;;;;;;;;;;;;5002014;28;20443;-86
2022/08/04 08:16:32;;;;;;;;;;;;;;;;;;5008472;28;20379;-86
2022/08/04 08:19:13;;;;;;;;;;;;;;;;;;5006830;28;19921;-87
2022/08/04 08:27:06;;;;;;;;;;;;;;;;;;5008712;28;20479;-86
2022/08/04 08:29:40;;;;;;;;;;;;;;;;;;5009488;28;19913;-85
2022/08/04 08:32:22;;;;;;;;;;;;;;;;;;;;;
2022/08/04 08:37:33;;;;;;;;;;;;;;;;;;4949398;28;19914;-85
2022/08/04 08:39:59;;;;;;;;;;;;;;;;;;5002057;28;19920;-85
2022/08/04 08:42:24;;;;;;;;;;;;;;;;;;5005587;28;19917;-85
2022/08/04 08:44:52;;;;;;;;;;;;;;;;;;5008017;28;19921;-85
2022/08/04 08:47:17;;;;;;;;;;;;;;;;;;5007451;28;19924;-86
2022/08/04 08:49:42;;;;;;;;;;;;;;;;;;5005498;28;19918;-85
2022/08/04 08:52:07;;;;;;;;;;;;;;;;;;5008215;28;19917;-84
2022/08/04 08:54:33;;;;;;;;;;;;;;;;;;5008047;28;19910;-85
2022/08/04 08:56:59;;;;;;;;;;;;;;;;;;5017900;28;20068;-85
2022/08/04 09:02:17;;;;;;;;;;;;;;;;;;4993601;28;19917;-84
2022/08/04 09:04:42;;;;;;;;;;;;;;;;;;5006326;28;20025;-85
2022/08/04 09:07:07;;;;;;;;;;;;;;;;;;5001461;28;20006;-85
2022/08/04 09:09:32;;;;;;;;;;;;;;;;;;5005965;28;19948;-86
2022/08/04 09:11:57;;;;;;;;;;;;;;;;;;5006084;28;19920;-85
2022/08/04 09:14:25;;;;;;;;;;;;;;;;;;5002267;28;20013;-87
2022/08/04 09:17:02;;;;;;;;;;;;;;;;;;;;;
2022/08/04 09:19:42;;;;;;;;;;;;;;;;;;5003350;28;19917;-87
2022/08/04 09:22:17;;;;;;;;;;;;;;;;;;5007229;28;19917;-86
2022/08/04 09:24:42;;;;;;;;;;;;;;;;;;5003143;28;19968;-89
2022/08/04 09:27:08;;;;;;;;;;;;;;;;;;5004710;28;19945;-86
2022/08/04 09:29:33;;;;;;;;;;;;;;;;;;5008533;28;20032;-86
2022/08/04 09:31:59;;;;;;;;;;;;;;;;;;5001469;28;20256;-86
2022/08/04 09:34:24;;;;;;;;;;;;;;;;;;5006034;28;19917;-85
2022/08/04 09:36:49;;;;;;;;;;;;;;;;;;5000037;28;19936;-85
2022/08/04 09:39:14;;;;;;;;;;;;;;;;;;5001090;28;19914;-85
2022/08/04 09:41:40;;;;;;;;;;;;;;;;;;5004681;28;19960;-86
2022/08/04 09:44:05;;;;;;;;;;;;;;;;;;5000359;28;19921;-85
2022/08/04 09:46:30;;;;;;;;;;;;;;;;;;5001757;28;20314;-86
2022/08/04 09:48:57;;;;;;;;;;;;;;;;;;4997909;28;19927;-85
2022/08/04 09:51:22;;;;;;;;;;;;;;;;;;5001929;28;20268;-85
2022/08/04 09:53:48;;;;;;;;;;;;;;;;;;5005414;28;19921;-85
2022/08/04 09:56:13;;;;;;;;;;;;;;;;;;5004088;28;19925;-85
2022/08/04 09:58:38;;;;;;;;;;;;;;;;;;5001971;28;19921;-86
2022/08/04 10:01:03;;;;;;;;;;;;;;;;;;5002540;28;19917;-85
2022/08/04 10:03:30;;;;;;;;;;;;;;;;;;5001656;28;20402;-86
2022/08/04 10:05:55;;;;;;;;;;;;;;;;;;5002801;28;20426;-87
2022/08/04 10:08:20;;;;;;;;;;;;;;;;;;5008489;28;19917;-85
2022/08/04 10:10:46;;;;;;;;;;;;;;;;;;5003174;28;19921;-85
2022/08/04 10:13:11;;;;;;;;;;;;;;;;;;5005602;28;19925;-86
2022/08/04 10:15:36;;;;;;;;;;;;;;;;;;5007574;28;20438;-85
2022/08/04 10:18:01;;;;;;;;;;;;;;;;;;5000497;28;19924;-86
2022/08/04 10:20:26;;;;;;;;;;;;;;;;;;5003095;28;19928;-85
2022/08/04 10:25:35;;;;;;;;;;;;;;;;;;5003310;28;19983;-85
2022/08/04 10:28:01;;;;;;;;;;;;;;;;;;5004168;28;19926;-84
2022/08/04 10:30:27;;;;;;;;;;;;;;;;;;5002499;28;20306;-86
2022/08/04 10:32:54;;;;;;;;;;;;;;;;;;5002818;28;19917;-86
2022/08/04 10:35:22;;;;;;;;;;;;;;;;;;4999970;28;19921;-86
2022/08/04 10:37:47;;;;;;;;;;;;;;;;;;5003255;28;19929;-86
2022/08/04 10:42:56;;;;;;;;;;;;;;;;;;5000706;28;19979;-87
2022/08/04 10:45:21;;;;;;;;;;;;;;;;;;5002418;28;19921;-85
2022/08/04 10:47:47;;;;;;;;;;;;;;;;;;4998427;28;19914;-85
2022/08/04 10:50:12;;;;;;;;;;;;;;;;;;5004363;28;19925;-85
2022/08/04 10:52:37;;;;;;;;;;;;;;;;;;5001103;28;19921;-85
2022/08/04 10:55:05;;;;;;;;;;;;;;;;;;4999267;28;20526;-85
2022/08/04 10:57:30;;;;;;;;;;;;;;;;;;4993545;28;19937;-85
2022/08/04 10:59:55;;;;;;;;;;;;;;;;;;4999473;28;19918;-88
2022/08/04 11:02:21;;;;;;;;;;;;;;;;;;5003331;28;20067;-86
2022/08/04 11:04:48;;;;;;;;;;;;;;;;;;5001054;28;19921;-87
2022/08/04 11:07:13;;;;;;;;;;;;;;;;;;5002255;28;19922;-88
2022/08/04 11:09:39;;;;;;;;;;;;;;;;;;5000749;28;19964;-90
2022/08/04 11:12:04;;;;;;;;;;;;;;;;;;4996150;28;19949;-86
2022/08/04 11:14:29;;;;;;;;;;;;;;;;;;5001181;28;19926;-86
2022/08/04 11:16:54;;;;;;;;;;;;;;;;;;5002224;28;20557;-86
2022/08/04 11:19:20;;;;;;;;;;;;;;;;;;4999157;28;19984;-87
2022/08/04 11:21:45;;;;;;;;;;;;;;;;;;5005114;28;19913;-87
2022/08/04 11:24:10;;;;;;;;;;;;;;;;;;5001317;28;19953;-86
2022/08/04 11:26:35;;;;;;;;;;;;;;;;;;4994501;28;20427;-87
2022/08/04 11:29:00;;;;;;;;;;;;;;;;;;5001491;28;19932;-88
2022/08/04 11:31:25;;;;;;;;;;;;;;;;;;5000987;28;19925;-87
2022/08/04 11:33:51;;;;;;;;;;;;;;;;;;5002958;28;19921;-86
2022/08/04 11:36:16;;;;;;;;;;;;;;;;;;5004075;28;19922;-87
2022/08/04 11:38:41;;;;;;;;;;;;;;;;;;5004272;28;19921;-88
2022/08/04 11:41:06;;;;;;;;;;;;;;;;;;5001669;28;19993;-86
2022/08/04 11:43:32;;;;;;;;;;;;;;;;;;4999763;28;19937;-87
2022/08/04 11:45:57;;;;;;;;;;;;;;;;;;5005312;28;19918;-88
2022/08/04 11:48:22;;;;;;;;;;;;;;;;;;5001674;28;20468;-87
2022/08/04 11:50:47;;;;;;;;;;;;;;;;;;5001258;28;20004;-86
2022/08/04 11:53:15;;;;;;;;;;;;;;;;;;4998596;28;19921;-88
2022/08/04 11:55:40;;;;;;;;;;;;;;;;;;4998565;28;20000;-88
2022/08/04 11:58:06;;;;;;;;;;;;;;;;;;5002849;28;20012;-86
2022/08/04 12:00:31;;;;;;;;;;;;;;;;;;5004186;28;20011;-87
2022/08/04 12:02:56;;;;;;;;;;;;;;;;;;5003018;28;19926;-88
2022/08/04 12:05:21;;;;;;;;;;;;;;;;;;5004683;28;19941;-87
2022/08/04 12:07:46;;;;;;;;;;;;;;;;;;5008538;28;19921;-86
2022/08/04 12:10:12;;;;;;;;;;;;;;;;;;5006153;28;19922;-86
2022/08/04 12:12:37;;;;;;;;;;;;;;;;;;5006069;28;19914;-87
2022/08/04 12:15:03;;;;;;;;;;;;;;;;;;5006704;28;19913;-87
2022/08/04 12:17:28;;;;;;;;;;;;;;;;;;5009197;28;19949;-88
2022/08/04 12:19:53;;;;;;;;;;;;;;;;;;5006648;28;20378;-88
2022/08/04 12:22:18;;;;;;;;;;;;;;;;;;5009790;28;19913;-87
2022/08/04 12:24:43;;;;;;;;;;;;;;;;;;5013414;28;20278;-88
2022/08/04 12:27:09;;;;;;;;;;;;;;;;;;5006242;28;20047;-86
2022/08/04 12:29:34;;;;;;;;;;;;;;;;;;5006675;28;19948;-86
2022/08/04 12:32:00;;;;;;;;;;;;;;;;;;5005325;28;19960;-88
2022/08/04 12:34:25;;;;;;;;;;;;;;;;;;5004246;28;19979;-87
2022/08/04 12:36:54;;;;;;;;;;;;;;;;;;5006956;28;19997;-87
2022/08/04 12:39:19;;;;;;;;;;;;;;;;;;5009814;28;19928;-88
2022/08/04 12:41:44;;;;;;;;;;;;;;;;;;5005061;28;20286;-87
2022/08/04 12:44:09;;;;;;;;;;;;;;;;;;5004667;28;19914;-87
2022/08/04 12:46:35;;;;;;;;;;;;;;;;;;5005109;28;19922;-88
2022/08/04 12:49:00;;;;;;;;;;;;;;;;;;5007151;28;19917;-87
2022/08/04 12:51:25;;;;;;;;;;;;;;;;;;5008082;28;20878;-87
2022/08/04 12:53:51;;;;;;;;;;;;;;;;;;5005911;28;19914;-86
2022/08/04 12:56:16;;;;;;;;;;;;;;;;;;5007932;28;21505;-86
2022/08/04 12:58:41;;;;;;;;;;;;;;;;;;5007347;28;20453;-88
2022/08/04 13:01:06;;;;;;;;;;;;;;;;;;5000381;28;19914;-84
2022/08/04 13:03:32;;;;;;;;;;;;;;;;;;5006443;28;19932;-84
2022/08/04 13:05:57;;;;;;;;;;;;;;;;;;5014061;28;20016;-85
2022/08/04 13:08:22;;;;;;;;;;;;;;;;;;5014251;28;19913;-85
2022/08/04 13:10:47;;;;;;;;;;;;;;;;;;5020820;28;20092;-84
2022/08/04 13:13:12;;;;;;;;;;;;;;;;;;5021532;28;19917;-84
2022/08/04 13:15:37;;;;;;;;;;;;;;;;;;5020301;28;19977;-86
2022/08/04 13:18:03;;;;;;;;;;;;;;;;;;5022289;28;19984;-86
2022/08/04 13:20:28;;;;;;;;;;;;;;;;;;5022212;28;19980;-85
2022/08/04 13:22:53;;;;;;;;;;;;;;;;;;5020521;28;19914;-86
2022/08/04 13:25:18;;;;;;;;;;;;;;;;;;5021751;28;19952;-85
2022/08/04 13:27:46;;;;;;;;;;;;;;;;;;5021828;28;20055;-84
2022/08/04 13:30:11;;;;;;;;;;;;;;;;;;5016498;28;19914;-83
2022/08/04 13:32:36;;;;;;;;;;;;;;;;;;5020268;28;19928;-86
2022/08/04 13:35:03;;;;;;;;;;;;;;;;;;5015668;28;20458;-84
2022/08/04 13:37:28;;;;;;;;;;;;;;;;;;5017358;28;20407;-83
2022/08/04 13:39:53;;;;;;;;;;;;;;;;;;5015590;28;19928;-82
2022/08/04 13:42:18;;;;;;;;;;;;;;;;;;5016534;28;19922;-82
2022/08/04 13:44:44;;;;;;;;;;;;;;;;;;5012762;28;19921;-84
2022/08/04 13:47:09;;;;;;;;;;;;;;;;;;5017501;28;19952;-83
2022/08/04 13:49:34;;;;;;;;;;;;;;;;;;5016203;28;19914;-84
2022/08/04 13:51:59;;;;;;;;;;;;;;;;;;5014596;28;19924;-83
2022/08/04 13:54:24;;;;;;;;;;;;;;;;;;5011604;28;19902;-82
2022/08/04 13:56:49;;;;;;;;;;;;;;;;;;5019221;28;19920;-83
2022/08/04 13:59:15;;;;;;;;;;;;;;;;;;5012888;28;19918;-83
2022/08/04 14:01:40;;;;;;;;;;;;;;;;;;5016405;28;20574;-83
2022/08/04 14:04:05;;;;;;;;;;;;;;;;;;5011560;28;19917;-82
2022/08/04 14:06:30;;;;;;;;;;;;;;;;;;5016844;28;19927;-84
2022/08/04 14:08:56;;;;;;;;;;;;;;;;;;5020762;28;19918;-84
2022/08/04 14:11:21;;;;;;;;;;;;;;;;;;5022046;28;19913;-82
2022/08/04 14:13:46;;;;;;;;;;;;;;;;;;5014716;28;19928;-82
2022/08/04 14:16:11;;;;;;;;;;;;;;;;;;5015117;28;19940;-84
2022/08/04 14:18:36;;;;;;;;;;;;;;;;;;5015730;28;19949;-82
2022/08/04 14:21:01;;;;;;;;;;;;;;;;;;5014008;28;20381;-81
2022/08/04 14:23:27;;;;;;;;;;;;;;;;;;5004078;28;19914;-81
2022/08/04 14:25:52;;;;;;;;;;;;;;;;;;5007283;28;20414;-82
2022/08/04 14:28:17;;;;;;;;;;;;;;;;;;5003512;28;19914;-83
2022/08/04 14:30:42;;;;;;;;;;;;;;;;;;5000036;28;19914;-83
2022/08/04 14:33:08;;;;;;;;;;;;;;;;;;5006439;28;19953;-84
2022/08/04 14:35:33;;;;;;;;;;;;;;;;;;5011039;28;19928;-82
2022/08/04 14:37:58;;;;;;;;;;;;;;;;;;5010241;28;19917;-82
2022/08/04 14:40:23;;;;;;;;;;;;;;;;;;5009932;28;19956;-86
2022/08/04 14:42:48;;;;;;;;;;;;;;;;;;4999874;28;20278;-82
2022/08/04 14:45:14;;;;;;;;;;;;;;;;;;4996016;28;19976;-82
2022/08/04 14:47:45;;;;;;;;;;;;;;;;;;5005405;28;20190;-83
2022/08/04 14:50:11;;;;;;;;;;;;;;;;;;5010023;28;19914;-84
2022/08/04 14:52:36;;;;;;;;;;;;;;;;;;5007572;28;20019;-84
2022/08/04 14:55:03;;;;;;;;;;;;;;;;;;5005571;28;19925;-84
2022/08/04 14:57:29;;;;;;;;;;;;;;;;;;5004816;28;19910;-84
2022/08/04 14:59:55;;;;;;;;;;;;;;;;;;5011200;28;19920;-84
2022/08/04 15:02:22;;;;;;;;;;;;;;;;;;5006110;28;19914;-84
2022/08/04 15:04:47;;;;;;;;;;;;;;;;;;5009557;28;19921;-84
2022/08/04 15:07:13;;;;;;;;;;;;;;;;;;5003590;28;19917;-83
2022/08/04 15:09:39;;;;;;;;;;;;;;;;;;5005273;28;19920;-85
2022/08/04 15:12:04;;;;;;;;;;;;;;;;;;5010387;28;19914;-85
2022/08/04 15:14:30;;;;;;;;;;;;;;;;;;5007153;28;19914;-84
2022/08/04 15:16:55;;;;;;;;;;;;;;;;;;5002068;28;19937;-85
2022/08/04 15:19:20;;;;;;;;;;;;;;;;;;4998476;28;19976;-84
2022/08/04 15:21:46;;;;;;;;;;;;;;;;;;5001049;28;20528;-85
2022/08/04 15:24:11;;;;;;;;;;;;;;;;;;5009161;28;19914;-84
2022/08/04 15:26:36;;;;;;;;;;;;;;;;;;5007834;28;19925;-83
2022/08/04 15:29:02;;;;;;;;;;;;;;;;;;4993190;28;19924;-84
2022/08/04 15:31:27;;;;;;;;;;;;;;;;;;5007275;28;19925;-84
2022/08/04 15:33:52;;;;;;;;;;;;;;;;;;5015116;28;19913;-85
2022/08/04 15:36:17;;;;;;;;;;;;;;;;;;5006467;28;19914;-86
2022/08/04 15:38:42;;;;;;;;;;;;;;;;;;5015729;28;19914;-84
2022/08/04 15:43:57;;;;;;;;;;;;;;;;;;5018170;28;19924;-84
2022/08/04 15:46:23;;;;;;;;;;;;;;;;;;4974391;28;19933;-85
2022/08/04 15:48:49;;;;;;;;;;;;;;;;;;5009706;28;20268;-84
2022/08/04 15:51:17;;;;;;;;;;;;;;;;;;5009005;28;19914;-83
2022/08/04 16:23:52;;;;;;;;;;;;;;;;;;4926540;29;20013;-83
2022/08/04 16:26:19;;;;;;;;;;;;;;;;;;4920792;29;19930;-85
2022/08/04 16:31:28;;;;;;;;;;;;;;;;;;4926873;29;19926;-84
2022/08/04 16:56:13;;;;;;;;;;;;;;;;;;4911880;29;20393;-83
2022/08/04 16:58:42;;;;;;;;;;;;;;;;;;4980402;28;20275;-82
2022/08/04 17:12:29;;;;;;;;;;;;;;;;;;4893401;29;19919;-84
2022/08/04 17:15:17;;;;;;;;;;;;;;;;;;4910152;29;20499;-83
2022/08/04 17:17:41;;;;;;;;;;;;;;;;;;4909289;29;19954;-83
2022/08/04 17:20:07;;;;;;;;;;;;;;;;;;4906936;29;19950;-84
2022/08/04 17:22:34;;;;;;;;;;;;;;;;;;4910298;29;20034;-83
2022/08/04 17:25:10;;;;;;;;;;;;;;;;;;;;;
2022/08/04 17:27:35;;;;;;;;;;;;;;;;;;5003554;28;20290;-81
2022/08/04 17:30:00;;;;;;;;;;;;;;;;;;5010244;28;20004;-81
2022/08/04 17:32:26;;;;;;;;;;;;;;;;;;5009311;28;20628;-82
2022/08/04 17:34:53;;;;;;;;;;;;;;;;;;5007568;28;19913;-84
2022/08/04 17:37:19;;;;;;;;;;;;;;;;;;4997407;28;19996;-81
2022/08/04 17:39:44;;;;;;;;;;;;;;;;;;5002570;28;20249;-81
2022/08/04 17:42:09;;;;;;;;;;;;;;;;;;4999219;28;19914;-81
2022/08/04 17:44:36;;;;;;;;;;;;;;;;;;5007591;28;19918;-83
2022/08/04 17:47:01;;;;;;;;;;;;;;;;;;5006893;28;19924;-83
2022/08/04 17:49:28;;;;;;;;;;;;;;;;;;5006478;28;19917;-82
2022/08/04 17:51:56;;;;;;;;;;;;;;;;;;5006788;28;19909;-85
2022/08/04 17:54:24;;;;;;;;;;;;;;;;;;4999782;28;21036;-83
2022/08/04 17:56:51;;;;;;;;;;;;;;;;;;5001536;28;19968;-82
2022/08/04 18:08:40;;;;;;;;;;;;;;;;;;;;;
2022/08/04 18:13:31;;;;;;;;;;;;;;;;;;4910628;29;19921;-84
2022/08/04 18:16:39;;;;;;;;;;;;;;;;;;4948726;28;19922;-82
2022/08/04 18:19:00;;;;;;;;;;;;;;;;;;4956997;28;19937;-83
2022/08/04 18:41:15;;;;;;;;;;;;;;;;;;4997535;28;19917;-83
2022/08/04 18:49:12;;;;;;;;;;;;;;;;;;5001987;28;19972;-82
2022/08/04 18:57:22;;;;;;;;;;;;;;;;;;4988985;28;20871;-85
2022/08/04 18:59:47;;;;;;;;;;;;;;;;;;5005706;28;19972;-84
2022/08/04 20:06:32;;;;;;;;;;;;;;;;;;;;;
2022/08/04 20:37:28;;;;;;;;;;;;;;;;;;;;;
2022/08/04 20:43:00;;;;;;;;;;;;;;;;;;4932575;29;20005;-84
2022/08/04 20:45:27;;;;;;;;;;;;;;;;;;4938744;28;19991;-85
2022/08/04 20:47:52;;;;;;;;;;;;;;;;;;4995627;28;20451;-85
2022/08/04 20:50:18;;;;;;;;;;;;;;;;;;4994795;28;19914;-84
2022/08/04 20:52:44;;;;;;;;;;;;;;;;;;4991366;28;20093;-85
2022/08/04 20:55:10;;;;;;;;;;;;;;;;;;4994866;28;20438;-84
2022/08/04 20:57:35;;;;;;;;;;;;;;;;;;4993923;28;20055;-85
2022/08/04 21:00:00;;;;;;;;;;;;;;;;;;5008393;28;19975;-84
2022/08/04 21:02:25;;;;;;;;;;;;;;;;;;4994188;28;19940;-85
2022/08/04 21:04:50;;;;;;;;;;;;;;;;;;4996708;28;19963;-83
2022/08/04 21:07:16;;;;;;;;;;;;;;;;;;4992232;28;19917;-84
2022/08/04 21:09:46;;;;;;;;;;;;;;;;;;4995296;28;19972;-84
2022/08/04 21:12:15;;;;;;;;;;;;;;;;;;4995484;28;20105;-84
2022/08/04 21:14:40;;;;;;;;;;;;;;;;;;4997477;28;19922;-84
2022/08/04 21:17:05;;;;;;;;;;;;;;;;;;4995154;28;20012;-84
2022/08/04 21:19:30;;;;;;;;;;;;;;;;;;4996525;28;19963;-84
2022/08/04 21:21:56;;;;;;;;;;;;;;;;;;4998523;28;19918;-84